sensor_id;sensor_type;location;lat;lon;timestamp;P1;durP1;ratioP1;P2;durP2;ratioP2
18875;SDS011;9570;50.854;13.778;2023-04-24T00:00:08;4.73;;;3.50;;
18875;SDS011;9570;50.854;13.778;2023-04-24T00:02:39;4.40;;;3.33;;
18875;SDS011;9570;50.854;13.778;2023-04-24T00:05:07;5.23;;;3.33;;
18875;SDS011;9570;50.854;13.778;2023-04-24T00:07:33;6.40;;;3.33;;
18875;SDS011;9570;50.854;13.778;2023-04-24T00:09:59;5.53;;;3.50;;
18875;SDS011;9570;50.854;13.778;2023-04-24T00:12:25;4.77;;;3.63;;
18875;SDS011;9570;50.854;13.778;2023-04-24T00:14:51;7.47;;;3.10;;
18875;SDS011;9570;50.854;13.778;2023-04-24T00:17:16;4.83;;;3.30;;
18875;SDS011;9570;50.854;13.778;2023-04-24T00:19:45;5.70;;;3.43;;
18875;SDS011;9570;50.854;13.778;2023-04-24T00:22:10;5.57;;;4.37;;
18875;SDS011;9570;50.854;13.778;2023-04-24T00:24:38;5.47;;;4.50;;
18875;SDS011;9570;50.854;13.778;2023-04-24T00:27:03;3.83;;;3.37;;
18875;SDS011;9570;50.854;13.778;2023-04-24T00:29:29;5.23;;;3.63;;
18875;SDS011;9570;50.854;13.778;2023-04-24T00:31:54;5.10;;;4.00;;
18875;SDS011;9570;50.854;13.778;2023-04-24T00:34:20;4.03;;;3.57;;
18875;SDS011;9570;50.854;13.778;2023-04-24T00:36:45;4.03;;;3.63;;
18875;SDS011;9570;50.854;13.778;2023-04-24T00:39:11;3.90;;;3.50;;
18875;SDS011;9570;50.854;13.778;2023-04-24T00:41:36;4.70;;;3.23;;
18875;SDS011;9570;50.854;13.778;2023-04-24T00:44:02;4.73;;;3.17;;
18875;SDS011;9570;50.854;13.778;2023-04-24T00:46:27;6.03;;;3.23;;
18875;SDS011;9570;50.854;13.778;2023-04-24T00:48:53;5.70;;;3.50;;
18875;SDS011;9570;50.854;13.778;2023-04-24T00:51:21;7.60;;;3.70;;
18875;SDS011;9570;50.854;13.778;2023-04-24T00:53:46;4.50;;;3.53;;
18875;SDS011;9570;50.854;13.778;2023-04-24T00:56:12;7.17;;;3.30;;
18875;SDS011;9570;50.854;13.778;2023-04-24T00:58:38;4.43;;;2.90;;
18875;SDS011;9570;50.854;13.778;2023-04-24T01:01:03;3.83;;;3.13;;
18875;SDS011;9570;50.854;13.778;2023-04-24T01:03:32;5.10;;;3.40;;
18875;SDS011;9570;50.854;13.778;2023-04-24T01:05:58;5.17;;;3.20;;
18875;SDS011;9570;50.854;13.778;2023-04-24T01:08:24;3.07;;;2.77;;
18875;SDS011;9570;50.854;13.778;2023-04-24T01:10:51;3.83;;;3.13;;
18875;SDS011;9570;50.854;13.778;2023-04-24T01:13:17;3.00;;;2.70;;
18875;SDS011;9570;50.854;13.778;2023-04-24T01:15:44;4.97;;;3.20;;
18875;SDS011;9570;50.854;13.778;2023-04-24T01:18:10;3.40;;;2.67;;
18875;SDS011;9570;50.854;13.778;2023-04-24T01:20:35;3.33;;;2.90;;
18875;SDS011;9570;50.854;13.778;2023-04-24T01:23:05;3.70;;;2.50;;
18875;SDS011;9570;50.854;13.778;2023-04-24T01:25:30;3.90;;;2.60;;
18875;SDS011;9570;50.854;13.778;2023-04-24T01:27:56;3.70;;;3.10;;
18875;SDS011;9570;50.854;13.778;2023-04-24T01:30:22;3.30;;;2.70;;
18875;SDS011;9570;50.854;13.778;2023-04-24T01:32:47;2.83;;;2.63;;
18875;SDS011;9570;50.854;13.778;2023-04-24T01:35:13;2.77;;;2.47;;
18875;SDS011;9570;50.854;13.778;2023-04-24T01:37:39;4.53;;;2.70;;
18875;SDS011;9570;50.854;13.778;2023-04-24T01:40:05;5.10;;;3.00;;
18875;SDS011;9570;50.854;13.778;2023-04-24T01:42:32;5.60;;;3.10;;
18875;SDS011;9570;50.854;13.778;2023-04-24T01:44:59;2.97;;;2.07;;
18875;SDS011;9570;50.854;13.778;2023-04-24T01:47:25;3.37;;;2.50;;
18875;SDS011;9570;50.854;13.778;2023-04-24T01:49:51;4.13;;;3.17;;
18875;SDS011;9570;50.854;13.778;2023-04-24T01:52:16;4.13;;;3.17;;
18875;SDS011;9570;50.854;13.778;2023-04-24T01:54:43;4.03;;;2.70;;
18875;SDS011;9570;50.854;13.778;2023-04-24T01:57:09;3.00;;;2.33;;
18875;SDS011;9570;50.854;13.778;2023-04-24T01:59:35;3.07;;;2.67;;
18875;SDS011;9570;50.854;13.778;2023-04-24T02:02:01;2.80;;;2.60;;
18875;SDS011;9570;50.854;13.778;2023-04-24T02:04:27;4.83;;;2.60;;
18875;SDS011;9570;50.854;13.778;2023-04-24T02:06:53;3.40;;;2.90;;
18875;SDS011;9570;50.854;13.778;2023-04-24T02:09:18;4.47;;;2.93;;
18875;SDS011;9570;50.854;13.778;2023-04-24T02:11:44;3.90;;;3.20;;
18875;SDS011;9570;50.854;13.778;2023-04-24T02:14:09;5.57;;;3.17;;
18875;SDS011;9570;50.854;13.778;2023-04-24T02:16:35;4.10;;;3.23;;
18875;SDS011;9570;50.854;13.778;2023-04-24T02:19:00;3.73;;;3.33;;
18875;SDS011;9570;50.854;13.778;2023-04-24T02:21:26;4.43;;;3.67;;
18875;SDS011;9570;50.854;13.778;2023-04-24T02:23:52;4.97;;;3.70;;
18875;SDS011;9570;50.854;13.778;2023-04-24T02:26:18;4.00;;;3.53;;
18875;SDS011;9570;50.854;13.778;2023-04-24T02:28:44;4.00;;;3.60;;
18875;SDS011;9570;50.854;13.778;2023-04-24T02:31:09;3.83;;;3.53;;
18875;SDS011;9570;50.854;13.778;2023-04-24T02:33:35;4.20;;;3.60;;
18875;SDS011;9570;50.854;13.778;2023-04-24T02:36:01;4.13;;;3.77;;
18875;SDS011;9570;50.854;13.778;2023-04-24T02:38:27;4.33;;;3.63;;
18875;SDS011;9570;50.854;13.778;2023-04-24T02:40:53;4.10;;;3.50;;
18875;SDS011;9570;50.854;13.778;2023-04-24T02:43:19;4.10;;;3.70;;
18875;SDS011;9570;50.854;13.778;2023-04-24T02:45:45;4.57;;;4.03;;
18875;SDS011;9570;50.854;13.778;2023-04-24T02:48:10;6.80;;;4.53;;
18875;SDS011;9570;50.854;13.778;2023-04-24T02:50:36;5.70;;;3.80;;
18875;SDS011;9570;50.854;13.778;2023-04-24T02:53:01;4.23;;;3.83;;
18875;SDS011;9570;50.854;13.778;2023-04-24T02:55:27;4.27;;;3.80;;
18875;SDS011;9570;50.854;13.778;2023-04-24T02:57:52;4.50;;;3.00;;
18875;SDS011;9570;50.854;13.778;2023-04-24T03:00:18;3.73;;;3.43;;
18875;SDS011;9570;50.854;13.778;2023-04-24T03:02:44;6.23;;;3.30;;
18875;SDS011;9570;50.854;13.778;2023-04-24T03:05:09;5.07;;;3.10;;
18875;SDS011;9570;50.854;13.778;2023-04-24T03:07:36;5.43;;;3.07;;
18875;SDS011;9570;50.854;13.778;2023-04-24T03:10:02;3.07;;;2.63;;
18875;SDS011;9570;50.854;13.778;2023-04-24T03:12:28;4.10;;;3.33;;
18875;SDS011;9570;50.854;13.778;2023-04-24T03:14:54;3.97;;;2.53;;
18875;SDS011;9570;50.854;13.778;2023-04-24T03:17:20;3.73;;;2.10;;
18875;SDS011;9570;50.854;13.778;2023-04-24T03:19:45;2.23;;;1.90;;
18875;SDS011;9570;50.854;13.778;2023-04-24T03:22:10;2.13;;;1.93;;
18875;SDS011;9570;50.854;13.778;2023-04-24T03:24:37;2.30;;;2.10;;
18875;SDS011;9570;50.854;13.778;2023-04-24T03:27:02;2.07;;;1.83;;
18875;SDS011;9570;50.854;13.778;2023-04-24T03:29:28;2.07;;;1.87;;
18875;SDS011;9570;50.854;13.778;2023-04-24T03:31:53;4.10;;;2.97;;
18875;SDS011;9570;50.854;13.778;2023-04-24T03:34:19;3.07;;;2.77;;
18875;SDS011;9570;50.854;13.778;2023-04-24T03:36:44;3.07;;;2.60;;
18875;SDS011;9570;50.854;13.778;2023-04-24T03:39:12;4.50;;;3.53;;
18875;SDS011;9570;50.854;13.778;2023-04-24T03:41:38;3.10;;;2.80;;
18875;SDS011;9570;50.854;13.778;2023-04-24T03:44:03;3.50;;;3.03;;
18875;SDS011;9570;50.854;13.778;2023-04-24T03:46:29;5.53;;;2.80;;
18875;SDS011;9570;50.854;13.778;2023-04-24T03:48:54;4.50;;;2.17;;
18875;SDS011;9570;50.854;13.778;2023-04-24T03:51:20;3.50;;;1.80;;
18875;SDS011;9570;50.854;13.778;2023-04-24T03:53:45;6.37;;;3.90;;
18875;SDS011;9570;50.854;13.778;2023-04-24T03:56:11;3.37;;;2.40;;
18875;SDS011;9570;50.854;13.778;2023-04-24T03:58:36;2.87;;;2.07;;
18875;SDS011;9570;50.854;13.778;2023-04-24T04:01:02;2.33;;;1.43;;
18875;SDS011;9570;50.854;13.778;2023-04-24T04:03:27;2.43;;;1.70;;
18875;SDS011;9570;50.854;13.778;2023-04-24T04:05:53;4.13;;;1.20;;
18875;SDS011;9570;50.854;13.778;2023-04-24T04:08:19;1.77;;;0.93;;
18875;SDS011;9570;50.854;13.778;2023-04-24T04:10:44;1.10;;;1.00;;
18875;SDS011;9570;50.854;13.778;2023-04-24T04:13:10;1.30;;;1.00;;
18875;SDS011;9570;50.854;13.778;2023-04-24T04:15:35;1.67;;;0.90;;
18875;SDS011;9570;50.854;13.778;2023-04-24T04:18:01;1.13;;;1.00;;
18875;SDS011;9570;50.854;13.778;2023-04-24T04:20:27;3.53;;;1.10;;
18875;SDS011;9570;50.854;13.778;2023-04-24T04:22:52;1.47;;;1.00;;
18875;SDS011;9570;50.854;13.778;2023-04-24T04:25:18;3.80;;;1.20;;
18875;SDS011;9570;50.854;13.778;2023-04-24T04:27:44;1.87;;;1.00;;
18875;SDS011;9570;50.854;13.778;2023-04-24T04:30:12;1.13;;;0.90;;
18875;SDS011;9570;50.854;13.778;2023-04-24T04:32:38;1.47;;;0.90;;
18875;SDS011;9570;50.854;13.778;2023-04-24T04:35:03;1.90;;;0.97;;
18875;SDS011;9570;50.854;13.778;2023-04-24T04:37:33;1.00;;;0.90;;
18875;SDS011;9570;50.854;13.778;2023-04-24T04:39:58;1.10;;;0.80;;
18875;SDS011;9570;50.854;13.778;2023-04-24T04:42:25;1.13;;;1.03;;
18875;SDS011;9570;50.854;13.778;2023-04-24T04:44:51;1.17;;;1.00;;
18875;SDS011;9570;50.854;13.778;2023-04-24T04:47:17;1.13;;;0.83;;
18875;SDS011;9570;50.854;13.778;2023-04-24T04:49:46;2.20;;;0.87;;
18875;SDS011;9570;50.854;13.778;2023-04-24T04:52:13;1.27;;;0.80;;
18875;SDS011;9570;50.854;13.778;2023-04-24T04:54:38;0.90;;;0.80;;
18875;SDS011;9570;50.854;13.778;2023-04-24T04:57:04;2.17;;;0.87;;
18875;SDS011;9570;50.854;13.778;2023-04-24T04:59:29;0.97;;;0.80;;
18875;SDS011;9570;50.854;13.778;2023-04-24T05:01:55;2.27;;;0.90;;
18875;SDS011;9570;50.854;13.778;2023-04-24T05:04:20;0.80;;;0.80;;
18875;SDS011;9570;50.854;13.778;2023-04-24T05:06:46;3.07;;;0.80;;
18875;SDS011;9570;50.854;13.778;2023-04-24T05:09:12;0.80;;;0.80;;
18875;SDS011;9570;50.854;13.778;2023-04-24T05:11:37;2.30;;;0.90;;
18875;SDS011;9570;50.854;13.778;2023-04-24T05:14:03;1.40;;;0.97;;
18875;SDS011;9570;50.854;13.778;2023-04-24T05:16:28;2.20;;;0.80;;
18875;SDS011;9570;50.854;13.778;2023-04-24T05:18:55;1.00;;;0.87;;
18875;SDS011;9570;50.854;13.778;2023-04-24T05:21:21;0.80;;;0.80;;
18875;SDS011;9570;50.854;13.778;2023-04-24T05:23:46;0.90;;;0.90;;
18875;SDS011;9570;50.854;13.778;2023-04-24T05:26:12;0.80;;;0.80;;
18875;SDS011;9570;50.854;13.778;2023-04-24T05:28:38;0.87;;;0.80;;
18875;SDS011;9570;50.854;13.778;2023-04-24T05:31:03;1.07;;;0.80;;
18875;SDS011;9570;50.854;13.778;2023-04-24T05:33:29;1.73;;;0.80;;
18875;SDS011;9570;50.854;13.778;2023-04-24T05:35:55;0.70;;;0.70;;
18875;SDS011;9570;50.854;13.778;2023-04-24T05:38:20;1.80;;;0.80;;
18875;SDS011;9570;50.854;13.778;2023-04-24T05:40:46;0.80;;;0.80;;
18875;SDS011;9570;50.854;13.778;2023-04-24T05:43:12;0.70;;;0.70;;
18875;SDS011;9570;50.854;13.778;2023-04-24T05:45:38;1.97;;;0.80;;
18875;SDS011;9570;50.854;13.778;2023-04-24T05:48:03;0.80;;;0.80;;
18875;SDS011;9570;50.854;13.778;2023-04-24T05:50:29;0.77;;;0.77;;
18875;SDS011;9570;50.854;13.778;2023-04-24T05:52:55;0.93;;;0.87;;
18875;SDS011;9570;50.854;13.778;2023-04-24T05:55:23;1.27;;;0.90;;
18875;SDS011;9570;50.854;13.778;2023-04-24T05:57:49;1.10;;;0.70;;
18875;SDS011;9570;50.854;13.778;2023-04-24T06:00:14;0.77;;;0.77;;
18875;SDS011;9570;50.854;13.778;2023-04-24T06:02:40;1.23;;;0.90;;
18875;SDS011;9570;50.854;13.778;2023-04-24T06:05:06;0.60;;;0.60;;
18875;SDS011;9570;50.854;13.778;2023-04-24T06:07:33;0.67;;;0.60;;
18875;SDS011;9570;50.854;13.778;2023-04-24T06:09:58;0.70;;;0.70;;
18875;SDS011;9570;50.854;13.778;2023-04-24T06:12:24;1.27;;;0.70;;
18875;SDS011;9570;50.854;13.778;2023-04-24T06:14:50;1.50;;;1.03;;
18875;SDS011;9570;50.854;13.778;2023-04-24T06:17:16;2.30;;;0.80;;
18875;SDS011;9570;50.854;13.778;2023-04-24T06:19:42;2.23;;;0.90;;
18875;SDS011;9570;50.854;13.778;2023-04-24T06:22:07;2.13;;;1.00;;
18875;SDS011;9570;50.854;13.778;2023-04-24T06:24:33;0.97;;;0.80;;
18875;SDS011;9570;50.854;13.778;2023-04-24T06:26:59;2.50;;;0.80;;
18875;SDS011;9570;50.854;13.778;2023-04-24T06:29:25;0.83;;;0.80;;
18875;SDS011;9570;50.854;13.778;2023-04-24T06:31:50;1.60;;;0.90;;
18875;SDS011;9570;50.854;13.778;2023-04-24T06:34:16;1.63;;;0.60;;
18875;SDS011;9570;50.854;13.778;2023-04-24T06:36:41;1.70;;;0.70;;
18875;SDS011;9570;50.854;13.778;2023-04-24T06:39:07;1.03;;;0.70;;
18875;SDS011;9570;50.854;13.778;2023-04-24T06:41:32;2.10;;;0.80;;
18875;SDS011;9570;50.854;13.778;2023-04-24T06:43:58;1.30;;;1.10;;
18875;SDS011;9570;50.854;13.778;2023-04-24T06:46:23;1.07;;;0.70;;
18875;SDS011;9570;50.854;13.778;2023-04-24T06:48:51;2.37;;;0.77;;
18875;SDS011;9570;50.854;13.778;2023-04-24T06:51:17;1.27;;;0.70;;
18875;SDS011;9570;50.854;13.778;2023-04-24T06:53:43;1.00;;;0.90;;
18875;SDS011;9570;50.854;13.778;2023-04-24T06:56:08;2.23;;;0.83;;
18875;SDS011;9570;50.854;13.778;2023-04-24T06:58:34;0.80;;;0.80;;
18875;SDS011;9570;50.854;13.778;2023-04-24T07:00:59;1.80;;;0.70;;
18875;SDS011;9570;50.854;13.778;2023-04-24T07:03:25;0.90;;;0.80;;
18875;SDS011;9570;50.854;13.778;2023-04-24T07:05:50;2.43;;;0.50;;
18875;SDS011;9570;50.854;13.778;2023-04-24T07:08:16;1.00;;;0.83;;
18875;SDS011;9570;50.854;13.778;2023-04-24T07:10:42;1.67;;;1.30;;
18875;SDS011;9570;50.854;13.778;2023-04-24T07:13:09;1.20;;;1.10;;
18875;SDS011;9570;50.854;13.778;2023-04-24T07:15:35;1.63;;;0.80;;
18875;SDS011;9570;50.854;13.778;2023-04-24T07:18:00;1.47;;;0.87;;
18875;SDS011;9570;50.854;13.778;2023-04-24T07:20:26;2.40;;;0.83;;
18875;SDS011;9570;50.854;13.778;2023-04-24T07:22:51;1.60;;;0.90;;
18875;SDS011;9570;50.854;13.778;2023-04-24T07:25:18;3.33;;;1.50;;
18875;SDS011;9570;50.854;13.778;2023-04-24T07:27:44;1.67;;;1.00;;
18875;SDS011;9570;50.854;13.778;2023-04-24T07:30:09;1.23;;;0.70;;
18875;SDS011;9570;50.854;13.778;2023-04-24T07:32:35;1.47;;;0.80;;
18875;SDS011;9570;50.854;13.778;2023-04-24T07:35:01;0.80;;;0.70;;
18875;SDS011;9570;50.854;13.778;2023-04-24T07:37:27;0.80;;;0.80;;
18875;SDS011;9570;50.854;13.778;2023-04-24T07:39:53;0.87;;;0.60;;
18875;SDS011;9570;50.854;13.778;2023-04-24T07:42:19;0.90;;;0.73;;
18875;SDS011;9570;50.854;13.778;2023-04-24T07:44:45;1.20;;;0.80;;
18875;SDS011;9570;50.854;13.778;2023-04-24T07:47:12;2.30;;;0.70;;
18875;SDS011;9570;50.854;13.778;2023-04-24T07:49:39;0.50;;;0.50;;
18875;SDS011;9570;50.854;13.778;2023-04-24T07:52:06;1.80;;;0.80;;
18875;SDS011;9570;50.854;13.778;2023-04-24T07:54:31;1.03;;;0.63;;
18875;SDS011;9570;50.854;13.778;2023-04-24T07:56:57;1.57;;;0.70;;
18875;SDS011;9570;50.854;13.778;2023-04-24T07:59:22;0.60;;;0.60;;
18875;SDS011;9570;50.854;13.778;2023-04-24T08:01:48;2.10;;;0.90;;
18875;SDS011;9570;50.854;13.778;2023-04-24T08:04:14;1.20;;;0.60;;
18875;SDS011;9570;50.854;13.778;2023-04-24T08:06:39;1.87;;;0.70;;
18875;SDS011;9570;50.854;13.778;2023-04-24T08:09:05;0.73;;;0.70;;
18875;SDS011;9570;50.854;13.778;2023-04-24T08:11:30;0.57;;;0.50;;
18875;SDS011;9570;50.854;13.778;2023-04-24T08:13:56;0.60;;;0.60;;
18875;SDS011;9570;50.854;13.778;2023-04-24T08:16:22;1.43;;;0.60;;
18875;SDS011;9570;50.854;13.778;2023-04-24T08:18:48;1.20;;;0.90;;
18875;SDS011;9570;50.854;13.778;2023-04-24T08:21:14;1.57;;;0.80;;
18875;SDS011;9570;50.854;13.778;2023-04-24T08:23:42;2.13;;;0.80;;
18875;SDS011;9570;50.854;13.778;2023-04-24T08:26:07;2.40;;;0.77;;
18875;SDS011;9570;50.854;13.778;2023-04-24T08:28:33;0.57;;;0.57;;
18875;SDS011;9570;50.854;13.778;2023-04-24T08:30:58;0.80;;;0.70;;
18875;SDS011;9570;50.854;13.778;2023-04-24T08:33:24;0.93;;;0.77;;
18875;SDS011;9570;50.854;13.778;2023-04-24T08:35:49;3.53;;;0.93;;
18875;SDS011;9570;50.854;13.778;2023-04-24T08:38:15;1.33;;;0.60;;
18875;SDS011;9570;50.854;13.778;2023-04-24T08:40:41;0.80;;;0.60;;
18875;SDS011;9570;50.854;13.778;2023-04-24T08:43:08;1.33;;;0.70;;
18875;SDS011;9570;50.854;13.778;2023-04-24T08:45:33;1.33;;;0.83;;
18875;SDS011;9570;50.854;13.778;2023-04-24T08:47:59;1.53;;;0.80;;
18875;SDS011;9570;50.854;13.778;2023-04-24T08:50:25;2.50;;;0.83;;
18875;SDS011;9570;50.854;13.778;2023-04-24T08:52:51;2.43;;;0.80;;
18875;SDS011;9570;50.854;13.778;2023-04-24T08:55:20;1.77;;;0.67;;
18875;SDS011;9570;50.854;13.778;2023-04-24T08:57:50;2.00;;;0.83;;
18875;SDS011;9570;50.854;13.778;2023-04-24T09:00:17;4.17;;;2.10;;
18875;SDS011;9570;50.854;13.778;2023-04-24T09:02:44;1.07;;;0.67;;
18875;SDS011;9570;50.854;13.778;2023-04-24T09:05:12;1.23;;;0.70;;
18875;SDS011;9570;50.854;13.778;2023-04-24T09:07:38;0.60;;;0.60;;
18875;SDS011;9570;50.854;13.778;2023-04-24T09:10:06;2.00;;;0.80;;
18875;SDS011;9570;50.854;13.778;2023-04-24T09:12:32;1.47;;;0.60;;
18875;SDS011;9570;50.854;13.778;2023-04-24T09:15:00;0.90;;;0.60;;
18875;SDS011;9570;50.854;13.778;2023-04-24T09:17:28;0.63;;;0.60;;
18875;SDS011;9570;50.854;13.778;2023-04-24T09:19:55;1.30;;;0.67;;
18875;SDS011;9570;50.854;13.778;2023-04-24T09:22:20;1.33;;;0.50;;
18875;SDS011;9570;50.854;13.778;2023-04-24T09:24:46;0.80;;;0.60;;
18875;SDS011;9570;50.854;13.778;2023-04-24T09:27:13;2.10;;;0.60;;
18875;SDS011;9570;50.854;13.778;2023-04-24T09:29:39;2.83;;;1.77;;
18875;SDS011;9570;50.854;13.778;2023-04-24T09:32:19;0.60;;;0.53;;
18875;SDS011;9570;50.854;13.778;2023-04-24T09:35:04;1.20;;;0.60;;
18875;SDS011;9570;50.854;13.778;2023-04-24T09:37:35;0.73;;;0.53;;
18875;SDS011;9570;50.854;13.778;2023-04-24T09:40:09;1.17;;;0.50;;
18875;SDS011;9570;50.854;13.778;2023-04-24T09:42:54;1.20;;;0.60;;
18875;SDS011;9570;50.854;13.778;2023-04-24T09:45:35;2.50;;;1.00;;
18875;SDS011;9570;50.854;13.778;2023-04-24T09:48:01;1.97;;;0.80;;
18875;SDS011;9570;50.854;13.778;2023-04-24T09:50:29;1.83;;;0.43;;
18875;SDS011;9570;50.854;13.778;2023-04-24T09:52:57;1.43;;;0.60;;
18875;SDS011;9570;50.854;13.778;2023-04-24T09:55:24;2.17;;;0.87;;
18875;SDS011;9570;50.854;13.778;2023-04-24T09:57:57;0.73;;;0.60;;
18875;SDS011;9570;50.854;13.778;2023-04-24T10:00:30;1.17;;;0.70;;
18875;SDS011;9570;50.854;13.778;2023-04-24T10:03:01;0.57;;;0.50;;
18875;SDS011;9570;50.854;13.778;2023-04-24T10:05:32;1.17;;;0.60;;
18875;SDS011;9570;50.854;13.778;2023-04-24T10:08:08;1.17;;;0.60;;
18875;SDS011;9570;50.854;13.778;2023-04-24T10:10:38;0.80;;;0.60;;
18875;SDS011;9570;50.854;13.778;2023-04-24T10:13:05;0.60;;;0.60;;
18875;SDS011;9570;50.854;13.778;2023-04-24T10:15:32;0.93;;;0.40;;
18875;SDS011;9570;50.854;13.778;2023-04-24T10:17:58;1.17;;;0.77;;
18875;SDS011;9570;50.854;13.778;2023-04-24T10:20:25;1.60;;;0.80;;
18875;SDS011;9570;50.854;13.778;2023-04-24T10:22:54;0.97;;;0.60;;
18875;SDS011;9570;50.854;13.778;2023-04-24T10:25:20;1.13;;;0.70;;
18875;SDS011;9570;50.854;13.778;2023-04-24T10:27:47;0.40;;;0.40;;
18875;SDS011;9570;50.854;13.778;2023-04-24T10:30:14;1.73;;;0.80;;
18875;SDS011;9570;50.854;13.778;2023-04-24T10:32:40;1.00;;;0.60;;
18875;SDS011;9570;50.854;13.778;2023-04-24T10:35:06;0.73;;;0.60;;
18875;SDS011;9570;50.854;13.778;2023-04-24T10:37:43;0.60;;;0.60;;
18875;SDS011;9570;50.854;13.778;2023-04-24T10:40:11;0.70;;;0.50;;
18875;SDS011;9570;50.854;13.778;2023-04-24T10:42:41;0.50;;;0.50;;
18875;SDS011;9570;50.854;13.778;2023-04-24T10:45:15;0.67;;;0.50;;
18875;SDS011;9570;50.854;13.778;2023-04-24T10:47:42;1.80;;;0.73;;
18875;SDS011;9570;50.854;13.778;2023-04-24T10:50:11;0.47;;;0.43;;
18875;SDS011;9570;50.854;13.778;2023-04-24T10:52:44;0.70;;;0.70;;
18875;SDS011;9570;50.854;13.778;2023-04-24T10:55:10;0.77;;;0.60;;
18875;SDS011;9570;50.854;13.778;2023-04-24T10:57:39;1.30;;;0.80;;
18875;SDS011;9570;50.854;13.778;2023-04-24T11:02:39;1.10;;;0.60;;
18875;SDS011;9570;50.854;13.778;2023-04-24T11:05:12;1.30;;;0.80;;
18875;SDS011;9570;50.854;13.778;2023-04-24T11:10:40;0.97;;;0.60;;
18875;SDS011;9570;50.854;13.778;2023-04-24T11:13:09;1.87;;;0.70;;
18875;SDS011;9570;50.854;13.778;2023-04-24T11:15:34;0.63;;;0.63;;
18875;SDS011;9570;50.854;13.778;2023-04-24T11:18:00;0.53;;;0.53;;
18875;SDS011;9570;50.854;13.778;2023-04-24T11:20:25;1.57;;;0.90;;
18875;SDS011;9570;50.854;13.778;2023-04-24T11:22:52;0.67;;;0.57;;
18875;SDS011;9570;50.854;13.778;2023-04-24T11:25:22;1.20;;;0.70;;
18875;SDS011;9570;50.854;13.778;2023-04-24T11:27:48;1.73;;;0.70;;
18875;SDS011;9570;50.854;13.778;2023-04-24T11:30:18;1.67;;;0.70;;
18875;SDS011;9570;50.854;13.778;2023-04-24T11:32:47;2.47;;;0.80;;
18875;SDS011;9570;50.854;13.778;2023-04-24T11:37:42;1.17;;;0.80;;
18875;SDS011;9570;50.854;13.778;2023-04-24T11:40:11;0.77;;;0.67;;
18875;SDS011;9570;50.854;13.778;2023-04-24T11:42:39;0.83;;;0.67;;
18875;SDS011;9570;50.854;13.778;2023-04-24T11:45:09;1.57;;;0.90;;
18875;SDS011;9570;50.854;13.778;2023-04-24T11:47:39;1.60;;;0.70;;
18875;SDS011;9570;50.854;13.778;2023-04-24T11:50:10;2.40;;;0.90;;
18875;SDS011;9570;50.854;13.778;2023-04-24T11:52:38;2.10;;;0.90;;
18875;SDS011;9570;50.854;13.778;2023-04-24T11:55:12;2.83;;;0.80;;
18875;SDS011;9570;50.854;13.778;2023-04-24T11:57:49;2.33;;;0.80;;
18875;SDS011;9570;50.854;13.778;2023-04-24T12:00:16;0.70;;;0.70;;
18875;SDS011;9570;50.854;13.778;2023-04-24T12:02:44;1.90;;;0.87;;
18875;SDS011;9570;50.854;13.778;2023-04-24T12:05:18;1.63;;;1.10;;
18875;SDS011;9570;50.854;13.778;2023-04-24T12:07:45;1.87;;;0.93;;
18875;SDS011;9570;50.854;13.778;2023-04-24T12:10:11;1.13;;;0.90;;
18875;SDS011;9570;50.854;13.778;2023-04-24T12:12:36;1.00;;;0.80;;
18875;SDS011;9570;50.854;13.778;2023-04-24T12:15:06;1.50;;;0.90;;
18875;SDS011;9570;50.854;13.778;2023-04-24T12:17:33;1.00;;;0.80;;
18875;SDS011;9570;50.854;13.778;2023-04-24T12:20:03;2.87;;;0.90;;
18875;SDS011;9570;50.854;13.778;2023-04-24T12:25:12;1.23;;;1.07;;
18875;SDS011;9570;50.854;13.778;2023-04-24T12:27:43;2.40;;;1.73;;
18875;SDS011;9570;50.854;13.778;2023-04-24T12:30:10;2.33;;;1.00;;
18875;SDS011;9570;50.854;13.778;2023-04-24T12:32:41;1.47;;;0.93;;
18875;SDS011;9570;50.854;13.778;2023-04-24T12:35:11;1.00;;;0.80;;
18875;SDS011;9570;50.854;13.778;2023-04-24T12:37:37;2.10;;;1.00;;
18875;SDS011;9570;50.854;13.778;2023-04-24T12:42:34;1.17;;;0.83;;
18875;SDS011;9570;50.854;13.778;2023-04-24T12:45:02;1.10;;;0.80;;
18875;SDS011;9570;50.854;13.778;2023-04-24T12:47:29;1.67;;;0.97;;
18875;SDS011;9570;50.854;13.778;2023-04-24T12:49:55;1.00;;;0.80;;
18875;SDS011;9570;50.854;13.778;2023-04-24T12:52:24;1.83;;;0.80;;
18875;SDS011;9570;50.854;13.778;2023-04-24T12:54:52;0.80;;;0.80;;
18875;SDS011;9570;50.854;13.778;2023-04-24T12:57:18;1.97;;;0.97;;
18875;SDS011;9570;50.854;13.778;2023-04-24T12:59:44;1.80;;;1.10;;
18875;SDS011;9570;50.854;13.778;2023-04-24T13:02:10;1.93;;;1.20;;
18875;SDS011;9570;50.854;13.778;2023-04-24T13:04:36;2.40;;;1.13;;
18875;SDS011;9570;50.854;13.778;2023-04-24T13:07:01;1.40;;;0.90;;
18875;SDS011;9570;50.854;13.778;2023-04-24T13:09:27;1.40;;;1.00;;
18875;SDS011;9570;50.854;13.778;2023-04-24T13:11:53;1.30;;;0.87;;
18875;SDS011;9570;50.854;13.778;2023-04-24T13:14:19;2.70;;;1.03;;
18875;SDS011;9570;50.854;13.778;2023-04-24T13:16:45;1.10;;;0.90;;
18875;SDS011;9570;50.854;13.778;2023-04-24T13:19:10;2.17;;;1.00;;
18875;SDS011;9570;50.854;13.778;2023-04-24T13:21:35;1.23;;;0.90;;
18875;SDS011;9570;50.854;13.778;2023-04-24T13:24:01;1.20;;;0.90;;
18875;SDS011;9570;50.854;13.778;2023-04-24T13:26:28;0.93;;;0.93;;
18875;SDS011;9570;50.854;13.778;2023-04-24T13:28:54;2.40;;;1.10;;
18875;SDS011;9570;50.854;13.778;2023-04-24T13:31:19;3.67;;;1.10;;
18875;SDS011;9570;50.854;13.778;2023-04-24T13:33:45;1.67;;;1.07;;
18875;SDS011;9570;50.854;13.778;2023-04-24T13:36:10;4.00;;;1.00;;
18875;SDS011;9570;50.854;13.778;2023-04-24T13:38:36;1.20;;;1.10;;
18875;SDS011;9570;50.854;13.778;2023-04-24T13:41:01;1.20;;;0.90;;
18875;SDS011;9570;50.854;13.778;2023-04-24T13:43:27;1.60;;;1.17;;
18875;SDS011;9570;50.854;13.778;2023-04-24T13:45:53;1.00;;;0.80;;
18875;SDS011;9570;50.854;13.778;2023-04-24T13:48:18;1.87;;;0.90;;
18875;SDS011;9570;50.854;13.778;2023-04-24T13:50:44;1.20;;;1.00;;
18875;SDS011;9570;50.854;13.778;2023-04-24T13:53:09;0.90;;;0.90;;
18875;SDS011;9570;50.854;13.778;2023-04-24T13:55:35;1.60;;;1.20;;
18875;SDS011;9570;50.854;13.778;2023-04-24T13:58:01;1.10;;;1.00;;
18875;SDS011;9570;50.854;13.778;2023-04-24T14:00:27;1.33;;;1.00;;
18875;SDS011;9570;50.854;13.778;2023-04-24T14:02:53;1.20;;;1.00;;
18875;SDS011;9570;50.854;13.778;2023-04-24T14:05:18;1.43;;;1.10;;
18875;SDS011;9570;50.854;13.778;2023-04-24T14:07:44;1.73;;;1.20;;
18875;SDS011;9570;50.854;13.778;2023-04-24T14:10:09;1.20;;;0.97;;
18875;SDS011;9570;50.854;13.778;2023-04-24T14:12:35;2.30;;;1.10;;
18875;SDS011;9570;50.854;13.778;2023-04-24T14:15:00;1.23;;;1.13;;
18875;SDS011;9570;50.854;13.778;2023-04-24T14:17:26;1.87;;;1.20;;
18875;SDS011;9570;50.854;13.778;2023-04-24T14:19:52;1.73;;;1.10;;
18875;SDS011;9570;50.854;13.778;2023-04-24T14:22:21;1.57;;;1.20;;
18875;SDS011;9570;50.854;13.778;2023-04-24T14:24:46;0.97;;;0.90;;
18875;SDS011;9570;50.854;13.778;2023-04-24T14:27:11;1.17;;;1.07;;
18875;SDS011;9570;50.854;13.778;2023-04-24T14:29:37;2.30;;;1.00;;
18875;SDS011;9570;50.854;13.778;2023-04-24T14:32:02;1.20;;;1.10;;
18875;SDS011;9570;50.854;13.778;2023-04-24T14:34:28;1.20;;;1.10;;
18875;SDS011;9570;50.854;13.778;2023-04-24T14:36:53;3.60;;;1.30;;
18875;SDS011;9570;50.854;13.778;2023-04-24T14:39:19;1.30;;;1.03;;
18875;SDS011;9570;50.854;13.778;2023-04-24T14:41:45;1.90;;;1.00;;
18875;SDS011;9570;50.854;13.778;2023-04-24T14:44:10;1.10;;;1.00;;
18875;SDS011;9570;50.854;13.778;2023-04-24T14:46:36;1.07;;;0.93;;
18875;SDS011;9570;50.854;13.778;2023-04-24T14:49:01;1.13;;;1.03;;
18875;SDS011;9570;50.854;13.778;2023-04-24T14:51:27;1.53;;;1.30;;
18875;SDS011;9570;50.854;13.778;2023-04-24T14:53:52;1.20;;;1.10;;
18875;SDS011;9570;50.854;13.778;2023-04-24T14:56:18;7.47;;;1.57;;